sensor_id;sensor_type;location;lat;lon;timestamp;P1;durP1;ratioP1;P2;durP2;ratioP2
83404;SDS011;73331;48.168;20.776;2023-11-21T00:00:39;56.78;;;19.55;;
83404;SDS011;73331;48.168;20.776;2023-11-21T00:02:10;62.47;;;19.80;;
83404;SDS011;73331;48.168;20.776;2023-11-21T00:03:41;54.72;;;17.45;;
83404;SDS011;73331;48.168;20.776;2023-11-21T00:05:12;46.35;;;16.80;;
83404;SDS011;73331;48.168;20.776;2023-11-21T00:06:44;59.55;;;18.23;;
83404;SDS011;73331;48.168;20.776;2023-11-21T00:08:17;47.42;;;16.50;;
83404;SDS011;73331;48.168;20.776;2023-11-21T00:09:47;59.75;;;17.40;;
83404;SDS011;73331;48.168;20.776;2023-11-21T00:11:18;59.35;;;18.38;;
83404;SDS011;73331;48.168;20.776;2023-11-21T00:12:49;48.58;;;17.95;;
83404;SDS011;73331;48.168;20.776;2023-11-21T00:14:19;53.15;;;17.50;;
83404;SDS011;73331;48.168;20.776;2023-11-21T00:15:50;63.30;;;18.23;;
83404;SDS011;73331;48.168;20.776;2023-11-21T00:17:20;59.63;;;19.85;;
83404;SDS011;73331;48.168;20.776;2023-11-21T00:18:51;63.47;;;20.95;;
83404;SDS011;73331;48.168;20.776;2023-11-21T00:20:21;55.40;;;18.77;;
83404;SDS011;73331;48.168;20.776;2023-11-21T00:21:52;49.70;;;16.70;;
83404;SDS011;73331;48.168;20.776;2023-11-21T00:23:23;50.78;;;16.75;;
83404;SDS011;73331;48.168;20.776;2023-11-21T00:24:53;63.03;;;18.90;;
83404;SDS011;73331;48.168;20.776;2023-11-21T00:26:24;70.70;;;19.33;;
83404;SDS011;73331;48.168;20.776;2023-11-21T00:27:54;56.97;;;18.60;;
83404;SDS011;73331;48.168;20.776;2023-11-21T00:29:25;83.65;;;21.60;;
83404;SDS011;73331;48.168;20.776;2023-11-21T00:30:56;81.75;;;21.38;;
83404;SDS011;73331;48.168;20.776;2023-11-21T00:32:26;110.72;;;24.27;;
83404;SDS011;73331;48.168;20.776;2023-11-21T00:33:57;91.57;;;22.80;;
83404;SDS011;73331;48.168;20.776;2023-11-21T00:35:28;77.85;;;21.73;;
83404;SDS011;73331;48.168;20.776;2023-11-21T00:36:58;91.65;;;22.55;;
83404;SDS011;73331;48.168;20.776;2023-11-21T00:38:29;68.18;;;21.05;;
83404;SDS011;73331;48.168;20.776;2023-11-21T00:40:00;79.30;;;22.20;;
83404;SDS011;73331;48.168;20.776;2023-11-21T00:41:35;88.18;;;23.80;;
83404;SDS011;73331;48.168;20.776;2023-11-21T00:43:06;68.05;;;19.75;;
83404;SDS011;73331;48.168;20.776;2023-11-21T00:44:37;120.88;;;24.63;;
83404;SDS011;73331;48.168;20.776;2023-11-21T00:46:09;85.70;;;21.67;;
83404;SDS011;73331;48.168;20.776;2023-11-21T00:47:40;72.68;;;18.52;;
83404;SDS011;73331;48.168;20.776;2023-11-21T00:49:10;82.63;;;20.80;;
83404;SDS011;73331;48.168;20.776;2023-11-21T00:50:41;104.75;;;22.05;;
83404;SDS011;73331;48.168;20.776;2023-11-21T00:52:11;90.88;;;23.17;;
83404;SDS011;73331;48.168;20.776;2023-11-21T00:53:42;66.78;;;22.52;;
83404;SDS011;73331;48.168;20.776;2023-11-21T00:55:13;78.30;;;21.20;;
83404;SDS011;73331;48.168;20.776;2023-11-21T00:56:43;76.90;;;20.40;;
83404;SDS011;73331;48.168;20.776;2023-11-21T00:58:14;62.15;;;18.70;;
83404;SDS011;73331;48.168;20.776;2023-11-21T00:59:44;85.70;;;18.90;;
83404;SDS011;73331;48.168;20.776;2023-11-21T01:01:15;89.90;;;21.10;;
83404;SDS011;73331;48.168;20.776;2023-11-21T01:02:46;71.20;;;19.45;;
83404;SDS011;73331;48.168;20.776;2023-11-21T01:04:18;76.93;;;16.23;;
83404;SDS011;73331;48.168;20.776;2023-11-21T01:05:49;66.53;;;16.17;;
83404;SDS011;73331;48.168;20.776;2023-11-21T01:07:20;64.10;;;16.70;;
83404;SDS011;73331;48.168;20.776;2023-11-21T01:08:51;57.67;;;15.63;;
83404;SDS011;73331;48.168;20.776;2023-11-21T01:10:21;53.42;;;16.67;;
83404;SDS011;73331;48.168;20.776;2023-11-21T01:11:52;79.32;;;18.17;;
83404;SDS011;73331;48.168;20.776;2023-11-21T01:13:23;92.40;;;19.38;;
83404;SDS011;73331;48.168;20.776;2023-11-21T01:14:59;77.50;;;22.45;;
83404;SDS011;73331;48.168;20.776;2023-11-21T01:16:30;81.70;;;21.38;;
83404;SDS011;73331;48.168;20.776;2023-11-21T01:19:33;85.80;;;20.65;;
83404;SDS011;73331;48.168;20.776;2023-11-21T01:21:04;93.82;;;23.02;;
83404;SDS011;73331;48.168;20.776;2023-11-21T01:22:35;86.68;;;22.17;;
83404;SDS011;73331;48.168;20.776;2023-11-21T01:24:05;81.15;;;21.23;;
83404;SDS011;73331;48.168;20.776;2023-11-21T01:25:37;119.60;;;26.80;;
83404;SDS011;73331;48.168;20.776;2023-11-21T01:27:08;153.20;;;28.30;;
83404;SDS011;73331;48.168;20.776;2023-11-21T01:28:39;128.40;;;26.17;;
83404;SDS011;73331;48.168;20.776;2023-11-21T01:30:09;123.53;;;26.83;;
83404;SDS011;73331;48.168;20.776;2023-11-21T01:31:41;201.93;;;32.80;;
83404;SDS011;73331;48.168;20.776;2023-11-21T01:33:11;180.95;;;30.65;;
83404;SDS011;73331;48.168;20.776;2023-11-21T01:34:42;118.85;;;26.67;;
83404;SDS011;73331;48.168;20.776;2023-11-21T01:36:13;134.65;;;25.60;;
83404;SDS011;73331;48.168;20.776;2023-11-21T01:37:44;128.02;;;26.90;;
83404;SDS011;73331;48.168;20.776;2023-11-21T01:39:15;132.70;;;28.80;;
83404;SDS011;73331;48.168;20.776;2023-11-21T01:40:46;110.70;;;26.17;;
83404;SDS011;73331;48.168;20.776;2023-11-21T01:42:17;91.63;;;23.45;;
83404;SDS011;73331;48.168;20.776;2023-11-21T01:43:48;128.07;;;25.48;;
83404;SDS011;73331;48.168;20.776;2023-11-21T01:45:19;148.75;;;27.55;;
83404;SDS011;73331;48.168;20.776;2023-11-21T01:46:50;102.72;;;26.25;;
83404;SDS011;73331;48.168;20.776;2023-11-21T01:48:22;140.30;;;26.40;;
83404;SDS011;73331;48.168;20.776;2023-11-21T01:49:53;126.75;;;27.27;;
83404;SDS011;73331;48.168;20.776;2023-11-21T01:51:24;157.73;;;28.25;;
83404;SDS011;73331;48.168;20.776;2023-11-21T01:52:55;114.32;;;24.67;;
83404;SDS011;73331;48.168;20.776;2023-11-21T01:54:26;77.85;;;21.45;;
83404;SDS011;73331;48.168;20.776;2023-11-21T01:56:01;78.03;;;18.50;;
83404;SDS011;73331;48.168;20.776;2023-11-21T01:57:32;79.55;;;17.38;;
83404;SDS011;73331;48.168;20.776;2023-11-21T01:59:02;63.65;;;16.50;;
83404;SDS011;73331;48.168;20.776;2023-11-21T02:00:33;55.80;;;16.05;;
83404;SDS011;73331;48.168;20.776;2023-11-21T02:02:04;64.28;;;15.40;;
83404;SDS011;73331;48.168;20.776;2023-11-21T02:03:36;48.95;;;14.30;;
83404;SDS011;73331;48.168;20.776;2023-11-21T02:05:07;54.17;;;15.35;;
83404;SDS011;73331;48.168;20.776;2023-11-21T02:06:39;42.15;;;14.23;;
83404;SDS011;73331;48.168;20.776;2023-11-21T02:08:09;48.17;;;16.27;;
83404;SDS011;73331;48.168;20.776;2023-11-21T02:09:40;55.53;;;14.68;;
83404;SDS011;73331;48.168;20.776;2023-11-21T02:11:12;36.47;;;13.57;;
83404;SDS011;73331;48.168;20.776;2023-11-21T02:12:43;47.00;;;14.50;;
83404;SDS011;73331;48.168;20.776;2023-11-21T02:14:14;44.75;;;15.15;;
83404;SDS011;73331;48.168;20.776;2023-11-21T02:15:45;63.28;;;16.10;;
83404;SDS011;73331;48.168;20.776;2023-11-21T02:17:15;37.35;;;14.02;;
83404;SDS011;73331;48.168;20.776;2023-11-21T02:18:48;39.67;;;14.00;;
83404;SDS011;73331;48.168;20.776;2023-11-21T02:20:19;51.38;;;14.38;;
83404;SDS011;73331;48.168;20.776;2023-11-21T02:21:52;42.58;;;14.70;;
83404;SDS011;73331;48.168;20.776;2023-11-21T02:23:23;39.83;;;13.52;;
83404;SDS011;73331;48.168;20.776;2023-11-21T02:24:58;45.55;;;13.30;;
83404;SDS011;73331;48.168;20.776;2023-11-21T02:26:29;35.08;;;13.15;;
83404;SDS011;73331;48.168;20.776;2023-11-21T02:28:00;46.90;;;13.38;;
83404;SDS011;73331;48.168;20.776;2023-11-21T02:29:32;53.20;;;14.73;;
83404;SDS011;73331;48.168;20.776;2023-11-21T02:31:03;44.45;;;13.95;;
83404;SDS011;73331;48.168;20.776;2023-11-21T02:32:34;34.97;;;13.73;;
83404;SDS011;73331;48.168;20.776;2023-11-21T02:34:05;42.38;;;14.15;;
83404;SDS011;73331;48.168;20.776;2023-11-21T02:35:36;48.10;;;14.70;;
83404;SDS011;73331;48.168;20.776;2023-11-21T02:38:38;33.67;;;11.73;;
83404;SDS011;73331;48.168;20.776;2023-11-21T02:40:09;44.40;;;13.32;;
83404;SDS011;73331;48.168;20.776;2023-11-21T02:41:43;40.65;;;12.63;;
83404;SDS011;73331;48.168;20.776;2023-11-21T02:43:14;40.50;;;13.57;;
83404;SDS011;73331;48.168;20.776;2023-11-21T02:44:44;43.97;;;14.35;;
83404;SDS011;73331;48.168;20.776;2023-11-21T02:46:15;58.55;;;14.93;;
83404;SDS011;73331;48.168;20.776;2023-11-21T02:47:46;49.15;;;16.90;;
83404;SDS011;73331;48.168;20.776;2023-11-21T02:49:17;53.13;;;15.10;;
83404;SDS011;73331;48.168;20.776;2023-11-21T02:50:47;48.88;;;15.98;;
83404;SDS011;73331;48.168;20.776;2023-11-21T02:52:18;47.25;;;14.68;;
83404;SDS011;73331;48.168;20.776;2023-11-21T02:53:49;39.00;;;14.25;;
83404;SDS011;73331;48.168;20.776;2023-11-21T02:55:21;41.70;;;13.73;;
83404;SDS011;73331;48.168;20.776;2023-11-21T02:56:51;33.17;;;11.65;;
83404;SDS011;73331;48.168;20.776;2023-11-21T02:58:22;45.47;;;13.38;;
83404;SDS011;73331;48.168;20.776;2023-11-21T02:59:53;27.90;;;12.35;;
83404;SDS011;73331;48.168;20.776;2023-11-21T03:01:23;28.95;;;11.70;;
83404;SDS011;73331;48.168;20.776;2023-11-21T03:02:55;31.40;;;11.93;;
83404;SDS011;73331;48.168;20.776;2023-11-21T03:04:26;35.03;;;12.90;;
83404;SDS011;73331;48.168;20.776;2023-11-21T03:05:56;34.70;;;12.13;;
83404;SDS011;73331;48.168;20.776;2023-11-21T03:07:27;38.65;;;13.50;;
83404;SDS011;73331;48.168;20.776;2023-11-21T03:08:58;50.20;;;13.60;;
83404;SDS011;73331;48.168;20.776;2023-11-21T03:10:28;42.35;;;13.85;;
83404;SDS011;73331;48.168;20.776;2023-11-21T03:11:59;44.33;;;14.68;;
83404;SDS011;73331;48.168;20.776;2023-11-21T03:13:30;41.15;;;13.68;;
83404;SDS011;73331;48.168;20.776;2023-11-21T03:15:00;43.85;;;14.13;;
83404;SDS011;73331;48.168;20.776;2023-11-21T03:16:32;36.75;;;13.85;;
83404;SDS011;73331;48.168;20.776;2023-11-21T03:18:03;38.30;;;14.30;;
83404;SDS011;73331;48.168;20.776;2023-11-21T03:21:05;37.42;;;13.18;;
83404;SDS011;73331;48.168;20.776;2023-11-21T03:22:39;55.63;;;15.77;;
83404;SDS011;73331;48.168;20.776;2023-11-21T03:24:09;50.78;;;15.45;;
83404;SDS011;73331;48.168;20.776;2023-11-21T03:25:40;57.47;;;18.58;;
83404;SDS011;73331;48.168;20.776;2023-11-21T03:27:11;63.92;;;16.55;;
83404;SDS011;73331;48.168;20.776;2023-11-21T03:28:42;58.13;;;15.35;;
83404;SDS011;73331;48.168;20.776;2023-11-21T03:30:13;49.90;;;15.43;;
83404;SDS011;73331;48.168;20.776;2023-11-21T03:31:43;59.88;;;15.85;;
83404;SDS011;73331;48.168;20.776;2023-11-21T03:33:14;53.92;;;16.50;;
83404;SDS011;73331;48.168;20.776;2023-11-21T03:34:57;60.00;;;16.50;;
83404;SDS011;73331;48.168;20.776;2023-11-21T03:36:28;58.85;;;15.55;;
83404;SDS011;73331;48.168;20.776;2023-11-21T03:37:58;45.33;;;14.15;;
83404;SDS011;73331;48.168;20.776;2023-11-21T03:39:29;51.95;;;15.40;;
83404;SDS011;73331;48.168;20.776;2023-11-21T03:41:00;47.00;;;16.00;;
83404;SDS011;73331;48.168;20.776;2023-11-21T03:42:30;60.05;;;17.50;;
83404;SDS011;73331;48.168;20.776;2023-11-21T03:44:01;50.95;;;16.42;;
83404;SDS011;73331;48.168;20.776;2023-11-21T03:45:32;66.70;;;18.55;;
83404;SDS011;73331;48.168;20.776;2023-11-21T03:47:03;54.67;;;15.30;;
83404;SDS011;73331;48.168;20.776;2023-11-21T03:48:34;46.63;;;15.48;;
83404;SDS011;73331;48.168;20.776;2023-11-21T03:50:05;35.50;;;14.25;;
83404;SDS011;73331;48.168;20.776;2023-11-21T03:51:36;54.05;;;15.32;;
83404;SDS011;73331;48.168;20.776;2023-11-21T03:53:07;41.55;;;14.02;;
83404;SDS011;73331;48.168;20.776;2023-11-21T03:54:37;57.42;;;15.38;;
83404;SDS011;73331;48.168;20.776;2023-11-21T03:56:08;51.20;;;16.45;;
83404;SDS011;73331;48.168;20.776;2023-11-21T03:57:39;54.08;;;15.05;;
83404;SDS011;73331;48.168;20.776;2023-11-21T03:59:10;50.28;;;16.63;;
83404;SDS011;73331;48.168;20.776;2023-11-21T04:00:41;59.60;;;14.93;;
83404;SDS011;73331;48.168;20.776;2023-11-21T04:02:12;53.92;;;17.48;;
83404;SDS011;73331;48.168;20.776;2023-11-21T04:03:42;53.92;;;17.15;;
83404;SDS011;73331;48.168;20.776;2023-11-21T04:05:13;60.85;;;17.48;;
83404;SDS011;73331;48.168;20.776;2023-11-21T04:06:44;53.28;;;16.02;;
83404;SDS011;73331;48.168;20.776;2023-11-21T04:08:15;39.30;;;14.80;;
83404;SDS011;73331;48.168;20.776;2023-11-21T04:09:46;39.03;;;13.23;;
83404;SDS011;73331;48.168;20.776;2023-11-21T04:11:16;48.47;;;13.63;;
83404;SDS011;73331;48.168;20.776;2023-11-21T04:12:47;50.30;;;12.65;;
83404;SDS011;73331;48.168;20.776;2023-11-21T04:14:18;40.33;;;13.30;;
83404;SDS011;73331;48.168;20.776;2023-11-21T04:15:49;45.95;;;13.38;;
83404;SDS011;73331;48.168;20.776;2023-11-21T04:17:20;47.30;;;13.50;;
83404;SDS011;73331;48.168;20.776;2023-11-21T04:18:51;69.43;;;15.38;;
83404;SDS011;73331;48.168;20.776;2023-11-21T04:20:21;65.15;;;14.32;;
83404;SDS011;73331;48.168;20.776;2023-11-21T04:21:53;46.17;;;14.32;;
83404;SDS011;73331;48.168;20.776;2023-11-21T04:23:24;53.80;;;14.02;;
83404;SDS011;73331;48.168;20.776;2023-11-21T04:24:55;74.07;;;13.52;;
83404;SDS011;73331;48.168;20.776;2023-11-21T04:26:26;67.95;;;14.13;;
83404;SDS011;73331;48.168;20.776;2023-11-21T04:27:56;98.22;;;16.13;;
83404;SDS011;73331;48.168;20.776;2023-11-21T04:29:27;51.05;;;14.15;;
83404;SDS011;73331;48.168;20.776;2023-11-21T04:30:57;57.55;;;14.23;;
83404;SDS011;73331;48.168;20.776;2023-11-21T04:32:28;65.60;;;17.10;;
83404;SDS011;73331;48.168;20.776;2023-11-21T04:33:59;50.25;;;16.05;;
83404;SDS011;73331;48.168;20.776;2023-11-21T04:35:29;52.42;;;15.63;;
83404;SDS011;73331;48.168;20.776;2023-11-21T04:37:00;47.50;;;13.70;;
83404;SDS011;73331;48.168;20.776;2023-11-21T04:38:31;42.28;;;12.40;;
83404;SDS011;73331;48.168;20.776;2023-11-21T04:40:01;41.17;;;11.10;;
83404;SDS011;73331;48.168;20.776;2023-11-21T04:41:35;31.33;;;11.85;;
83404;SDS011;73331;48.168;20.776;2023-11-21T04:43:09;32.67;;;13.85;;
83404;SDS011;73331;48.168;20.776;2023-11-21T04:44:39;42.88;;;13.25;;
83404;SDS011;73331;48.168;20.776;2023-11-21T04:46:11;40.55;;;14.23;;
83404;SDS011;73331;48.168;20.776;2023-11-21T04:47:41;46.03;;;15.15;;
83404;SDS011;73331;48.168;20.776;2023-11-21T04:49:14;64.00;;;16.88;;
83404;SDS011;73331;48.168;20.776;2023-11-21T04:50:44;77.30;;;25.38;;
83404;SDS011;73331;48.168;20.776;2023-11-21T04:52:15;101.80;;;30.08;;
83404;SDS011;73331;48.168;20.776;2023-11-21T04:53:46;100.53;;;29.30;;
83404;SDS011;73331;48.168;20.776;2023-11-21T04:55:16;68.88;;;22.30;;
83404;SDS011;73331;48.168;20.776;2023-11-21T04:56:47;73.85;;;22.90;;
83404;SDS011;73331;48.168;20.776;2023-11-21T04:58:17;79.50;;;17.05;;
83404;SDS011;73331;48.168;20.776;2023-11-21T04:59:49;46.67;;;13.88;;
83404;SDS011;73331;48.168;20.776;2023-11-21T05:01:20;51.20;;;14.20;;
83404;SDS011;73331;48.168;20.776;2023-11-21T05:02:51;57.30;;;14.55;;
83404;SDS011;73331;48.168;20.776;2023-11-21T05:04:22;61.45;;;16.33;;
83404;SDS011;73331;48.168;20.776;2023-11-21T05:05:53;59.78;;;15.70;;
83404;SDS011;73331;48.168;20.776;2023-11-21T05:07:23;51.10;;;15.30;;
83404;SDS011;73331;48.168;20.776;2023-11-21T05:08:54;39.30;;;12.70;;
83404;SDS011;73331;48.168;20.776;2023-11-21T05:10:25;46.30;;;12.18;;
83404;SDS011;73331;48.168;20.776;2023-11-21T05:11:55;40.40;;;12.50;;
83404;SDS011;73331;48.168;20.776;2023-11-21T05:13:26;33.10;;;10.50;;
83404;SDS011;73331;48.168;20.776;2023-11-21T05:14:57;26.65;;;10.40;;
83404;SDS011;73331;48.168;20.776;2023-11-21T05:16:28;23.75;;;9.35;;
83404;SDS011;73331;48.168;20.776;2023-11-21T05:17:59;50.92;;;11.48;;
83404;SDS011;73331;48.168;20.776;2023-11-21T05:19:30;30.80;;;11.80;;
83404;SDS011;73331;48.168;20.776;2023-11-21T05:21:00;35.47;;;11.95;;
83404;SDS011;73331;48.168;20.776;2023-11-21T05:22:32;44.85;;;13.32;;
83404;SDS011;73331;48.168;20.776;2023-11-21T05:24:03;43.15;;;12.88;;
83404;SDS011;73331;48.168;20.776;2023-11-21T05:27:06;49.33;;;13.25;;
83404;SDS011;73331;48.168;20.776;2023-11-21T05:28:36;40.17;;;11.52;;
83404;SDS011;73331;48.168;20.776;2023-11-21T05:30:07;30.23;;;10.00;;
83404;SDS011;73331;48.168;20.776;2023-11-21T05:31:42;29.95;;;9.85;;
83404;SDS011;73331;48.168;20.776;2023-11-21T05:33:13;28.38;;;9.80;;
83404;SDS011;73331;48.168;20.776;2023-11-21T05:34:43;37.13;;;11.18;;
83404;SDS011;73331;48.168;20.776;2023-11-21T05:36:14;40.38;;;10.55;;
83404;SDS011;73331;48.168;20.776;2023-11-21T05:37:47;24.35;;;9.50;;
83404;SDS011;73331;48.168;20.776;2023-11-21T05:39:18;35.97;;;11.20;;
83404;SDS011;73331;48.168;20.776;2023-11-21T05:40:49;36.38;;;10.48;;
83404;SDS011;73331;48.168;20.776;2023-11-21T05:42:20;29.00;;;10.88;;
83404;SDS011;73331;48.168;20.776;2023-11-21T05:43:51;31.83;;;9.80;;
83404;SDS011;73331;48.168;20.776;2023-11-21T05:45:21;30.58;;;11.00;;
83404;SDS011;73331;48.168;20.776;2023-11-21T05:46:52;28.58;;;12.35;;
83404;SDS011;73331;48.168;20.776;2023-11-21T05:48:23;37.40;;;13.05;;
83404;SDS011;73331;48.168;20.776;2023-11-21T05:49:53;48.30;;;12.60;;
83404;SDS011;73331;48.168;20.776;2023-11-21T05:51:24;34.33;;;11.02;;
83404;SDS011;73331;48.168;20.776;2023-11-21T05:52:55;43.97;;;12.32;;
83404;SDS011;73331;48.168;20.776;2023-11-21T05:54:25;45.35;;;14.73;;
83404;SDS011;73331;48.168;20.776;2023-11-21T05:55:56;43.85;;;14.40;;
83404;SDS011;73331;48.168;20.776;2023-11-21T05:57:27;37.05;;;12.50;;
83404;SDS011;73331;48.168;20.776;2023-11-21T05:58:57;32.58;;;11.73;;
83404;SDS011;73331;48.168;20.776;2023-11-21T06:00:28;34.03;;;11.23;;
83404;SDS011;73331;48.168;20.776;2023-11-21T06:01:59;33.05;;;10.35;;
83404;SDS011;73331;48.168;20.776;2023-11-21T06:03:29;34.28;;;12.32;;
83404;SDS011;73331;48.168;20.776;2023-11-21T06:05:00;41.35;;;11.52;;
83404;SDS011;73331;48.168;20.776;2023-11-21T06:06:31;43.05;;;12.70;;
83404;SDS011;73331;48.168;20.776;2023-11-21T06:08:02;31.85;;;12.50;;
83404;SDS011;73331;48.168;20.776;2023-11-21T06:09:32;36.03;;;12.57;;
83404;SDS011;73331;48.168;20.776;2023-11-21T06:11:03;26.17;;;10.15;;
83404;SDS011;73331;48.168;20.776;2023-11-21T06:12:33;37.10;;;12.50;;
83404;SDS011;73331;48.168;20.776;2023-11-21T06:14:05;28.98;;;10.10;;
83404;SDS011;73331;48.168;20.776;2023-11-21T06:15:38;35.03;;;10.93;;
83404;SDS011;73331;48.168;20.776;2023-11-21T06:17:09;23.80;;;9.40;;
83404;SDS011;73331;48.168;20.776;2023-11-21T06:18:40;27.13;;;9.73;;
83404;SDS011;73331;48.168;20.776;2023-11-21T06:20:10;34.33;;;10.20;;
83404;SDS011;73331;48.168;20.776;2023-11-21T06:21:47;24.88;;;9.75;;
83404;SDS011;73331;48.168;20.776;2023-11-21T06:23:18;33.85;;;8.00;;
83404;SDS011;73331;48.168;20.776;2023-11-21T06:24:48;23.65;;;7.90;;
83404;SDS011;73331;48.168;20.776;2023-11-21T06:26:19;26.13;;;8.00;;
83404;SDS011;73331;48.168;20.776;2023-11-21T06:27:50;34.75;;;9.10;;
83404;SDS011;73331;48.168;20.776;2023-11-21T06:29:22;36.38;;;9.00;;
83404;SDS011;73331;48.168;20.776;2023-11-21T06:30:53;43.20;;;9.50;;
83404;SDS011;73331;48.168;20.776;2023-11-21T06:32:24;23.98;;;8.02;;
83404;SDS011;73331;48.168;20.776;2023-11-21T06:33:54;30.45;;;8.13;;
83404;SDS011;73331;48.168;20.776;2023-11-21T06:35:25;30.92;;;8.90;;
83404;SDS011;73331;48.168;20.776;2023-11-21T06:36:57;36.78;;;8.75;;
83404;SDS011;73331;48.168;20.776;2023-11-21T06:38:28;26.77;;;7.30;;
83404;SDS011;73331;48.168;20.776;2023-11-21T06:40:00;22.35;;;8.07;;
83404;SDS011;73331;48.168;20.776;2023-11-21T06:41:31;24.40;;;7.82;;
83404;SDS011;73331;48.168;20.776;2023-11-21T06:43:02;21.55;;;7.60;;
83404;SDS011;73331;48.168;20.776;2023-11-21T06:44:32;24.27;;;8.13;;
83404;SDS011;73331;48.168;20.776;2023-11-21T06:46:04;28.83;;;9.13;;
83404;SDS011;73331;48.168;20.776;2023-11-21T06:47:34;25.63;;;10.00;;
83404;SDS011;73331;48.168;20.776;2023-11-21T06:49:05;30.13;;;8.50;;
83404;SDS011;73331;48.168;20.776;2023-11-21T06:50:36;23.80;;;7.82;;
83404;SDS011;73331;48.168;20.776;2023-11-21T06:52:07;32.10;;;10.00;;
83404;SDS011;73331;48.168;20.776;2023-11-21T06:53:38;22.10;;;7.72;;
83404;SDS011;73331;48.168;20.776;2023-11-21T06:55:10;25.02;;;7.75;;
83404;SDS011;73331;48.168;20.776;2023-11-21T06:56:41;17.02;;;8.77;;
83404;SDS011;73331;48.168;20.776;2023-11-21T06:58:11;35.33;;;10.25;;
83404;SDS011;73331;48.168;20.776;2023-11-21T06:59:42;23.55;;;7.60;;
83404;SDS011;73331;48.168;20.776;2023-11-21T07:01:13;22.05;;;8.68;;
83404;SDS011;73331;48.168;20.776;2023-11-21T07:02:44;23.48;;;9.15;;
83404;SDS011;73331;48.168;20.776;2023-11-21T07:04:14;25.42;;;7.95;;
83404;SDS011;73331;48.168;20.776;2023-11-21T07:05:45;19.88;;;7.18;;
83404;SDS011;73331;48.168;20.776;2023-11-21T07:08:48;18.65;;;7.25;;
83404;SDS011;73331;48.168;20.776;2023-11-21T07:10:19;26.35;;;7.55;;
83404;SDS011;73331;48.168;20.776;2023-11-21T07:11:50;19.70;;;7.15;;
83404;SDS011;73331;48.168;20.776;2023-11-21T07:13:20;22.50;;;6.95;;
83404;SDS011;73331;48.168;20.776;2023-11-21T07:14:52;21.30;;;6.85;;
83404;SDS011;73331;48.168;20.776;2023-11-21T07:16:22;25.27;;;7.78;;
83404;SDS011;73331;48.168;20.776;2023-11-21T07:17:54;20.88;;;7.38;;
83404;SDS011;73331;48.168;20.776;2023-11-21T07:19:25;26.05;;;9.18;;
83404;SDS011;73331;48.168;20.776;2023-11-21T07:20:56;20.58;;;8.38;;
83404;SDS011;73331;48.168;20.776;2023-11-21T07:22:27;19.88;;;8.45;;
83404;SDS011;73331;48.168;20.776;2023-11-21T07:23:58;20.73;;;7.72;;
83404;SDS011;73331;48.168;20.776;2023-11-21T07:25:36;16.50;;;7.47;;
83404;SDS011;73331;48.168;20.776;2023-11-21T07:27:07;23.98;;;8.63;;
83404;SDS011;73331;48.168;20.776;2023-11-21T07:28:37;24.38;;;7.85;;
83404;SDS011;73331;48.168;20.776;2023-11-21T07:30:08;22.27;;;7.38;;
83404;SDS011;73331;48.168;20.776;2023-11-21T07:31:40;20.15;;;8.15;;
83404;SDS011;73331;48.168;20.776;2023-11-21T07:33:11;22.15;;;8.30;;
83404;SDS011;73331;48.168;20.776;2023-11-21T07:34:42;19.50;;;7.43;;
83404;SDS011;73331;48.168;20.776;2023-11-21T07:36:13;27.02;;;7.38;;
83404;SDS011;73331;48.168;20.776;2023-11-21T07:37:44;24.60;;;6.95;;
83404;SDS011;73331;48.168;20.776;2023-11-21T07:39:15;16.67;;;6.63;;
83404;SDS011;73331;48.168;20.776;2023-11-21T07:40:46;21.52;;;7.90;;
83404;SDS011;73331;48.168;20.776;2023-11-21T07:42:17;30.35;;;7.60;;
83404;SDS011;73331;48.168;20.776;2023-11-21T07:43:48;22.33;;;6.82;;
83404;SDS011;73331;48.168;20.776;2023-11-21T07:45:18;32.40;;;7.45;;
83404;SDS011;73331;48.168;20.776;2023-11-21T07:46:49;28.15;;;6.97;;
83404;SDS011;73331;48.168;20.776;2023-11-21T07:48:20;16.75;;;5.90;;
83404;SDS011;73331;48.168;20.776;2023-11-21T07:49:50;29.88;;;8.68;;
83404;SDS011;73331;48.168;20.776;2023-11-21T07:51:21;27.20;;;5.80;;
83404;SDS011;73331;48.168;20.776;2023-11-21T07:52:52;16.58;;;5.65;;
83404;SDS011;73331;48.168;20.776;2023-11-21T07:54:24;17.15;;;6.07;;
83404;SDS011;73331;48.168;20.776;2023-11-21T07:55:55;23.02;;;6.05;;
83404;SDS011;73331;48.168;20.776;2023-11-21T07:58:58;15.50;;;5.53;;
83404;SDS011;73331;48.168;20.776;2023-11-21T08:00:29;24.10;;;6.07;;
83404;SDS011;73331;48.168;20.776;2023-11-21T08:02:01;20.27;;;5.13;;
83404;SDS011;73331;48.168;20.776;2023-11-21T08:03:31;17.13;;;5.88;;
83404;SDS011;73331;48.168;20.776;2023-11-21T08:05:02;24.85;;;6.25;;
83404;SDS011;73331;48.168;20.776;2023-11-21T08:06:33;19.95;;;6.80;;
83404;SDS011;73331;48.168;20.776;2023-11-21T08:08:03;22.65;;;6.55;;
83404;SDS011;73331;48.168;20.776;2023-11-21T08:09:34;27.15;;;5.95;;
83404;SDS011;73331;48.168;20.776;2023-11-21T08:11:05;23.05;;;7.15;;
83404;SDS011;73331;48.168;20.776;2023-11-21T08:12:38;17.55;;;6.00;;
83404;SDS011;73331;48.168;20.776;2023-11-21T08:14:08;26.77;;;6.82;;
83404;SDS011;73331;48.168;20.776;2023-11-21T08:15:39;28.23;;;7.63;;
83404;SDS011;73331;48.168;20.776;2023-11-21T08:17:10;23.52;;;7.65;;
83404;SDS011;73331;48.168;20.776;2023-11-21T08:18:41;26.10;;;7.90;;
83404;SDS011;73331;48.168;20.776;2023-11-21T08:20:12;31.95;;;8.23;;
83404;SDS011;73331;48.168;20.776;2023-11-21T08:21:42;28.50;;;8.52;;
83404;SDS011;73331;48.168;20.776;2023-11-21T08:23:16;39.33;;;9.88;;
83404;SDS011;73331;48.168;20.776;2023-11-21T08:24:47;27.65;;;8.48;;
83404;SDS011;73331;48.168;20.776;2023-11-21T08:26:17;28.65;;;8.80;;
83404;SDS011;73331;48.168;20.776;2023-11-21T08:27:48;37.58;;;12.23;;
83404;SDS011;73331;48.168;20.776;2023-11-21T08:29:19;40.83;;;14.07;;
83404;SDS011;73331;48.168;20.776;2023-11-21T08:30:50;35.13;;;11.20;;
83404;SDS011;73331;48.168;20.776;2023-11-21T08:32:21;43.95;;;11.60;;
83404;SDS011;73331;48.168;20.776;2023-11-21T08:33:52;24.42;;;9.48;;
83404;SDS011;73331;48.168;20.776;2023-11-21T08:35:25;42.22;;;9.93;;
83404;SDS011;73331;48.168;20.776;2023-11-21T08:36:56;24.70;;;10.95;;
83404;SDS011;73331;48.168;20.776;2023-11-21T08:38:27;30.48;;;11.55;;
83404;SDS011;73331;48.168;20.776;2023-11-21T08:39:59;59.78;;;19.02;;
83404;SDS011;73331;48.168;20.776;2023-11-21T08:41:30;45.25;;;16.92;;
83404;SDS011;73331;48.168;20.776;2023-11-21T08:43:00;38.58;;;14.02;;
83404;SDS011;73331;48.168;20.776;2023-11-21T08:44:31;35.63;;;13.23;;
83404;SDS011;73331;48.168;20.776;2023-11-21T08:46:02;45.90;;;13.07;;
83404;SDS011;73331;48.168;20.776;2023-11-21T08:47:33;43.50;;;14.98;;
83404;SDS011;73331;48.168;20.776;2023-11-21T08:49:03;46.50;;;16.58;;
83404;SDS011;73331;48.168;20.776;2023-11-21T08:50:34;57.15;;;16.02;;
83404;SDS011;73331;48.168;20.776;2023-11-21T08:52:05;36.17;;;15.30;;
83404;SDS011;73331;48.168;20.776;2023-11-21T08:53:36;37.83;;;13.23;;
83404;SDS011;73331;48.168;20.776;2023-11-21T08:55:08;37.80;;;12.48;;